createdAt,value
2018-10-01T00:02:35.399Z,2.10
2018-10-01T00:07:30.026Z,2.03
2018-10-01T00:12:24.684Z,2.00
2018-10-01T00:17:19.256Z,1.80
2018-10-01T00:22:19.085Z,1.50
2018-10-01T00:27:13.606Z,1.50
2018-10-01T00:32:08.260Z,1.50
2018-10-01T00:37:02.863Z,1.53
2018-10-01T00:41:57.408Z,1.30
2018-10-01T00:46:51.909Z,1.10
2018-10-01T00:51:46.436Z,1.20
2018-10-01T00:56:40.922Z,1.10
2018-10-01T01:01:35.500Z,1.10
2018-10-01T01:06:30.021Z,1.10
2018-10-01T01:11:24.856Z,0.87
2018-10-01T01:16:19.442Z,1.10
2018-10-01T01:21:14.406Z,1.07
2018-10-01T01:26:09.107Z,1.10
2018-10-01T01:31:03.931Z,1.17
2018-10-01T01:35:58.676Z,1.10
2018-10-01T01:40:53.220Z,1.27
2018-10-01T01:45:47.907Z,1.20
2018-10-01T01:50:42.499Z,1.40
2018-10-01T01:55:37.057Z,1.20
2018-10-01T02:00:31.879Z,1.30
2018-10-01T02:05:26.481Z,1.53
2018-10-01T02:10:21.236Z,1.50
2018-10-01T02:15:15.905Z,1.40
2018-10-01T02:20:10.539Z,1.23
2018-10-01T02:25:05.309Z,1.33
2018-10-01T02:30:00.237Z,1.47
2018-10-01T02:34:54.820Z,1.30
2018-10-01T02:39:49.372Z,1.17
2018-10-01T02:44:44.029Z,1.20
2018-10-01T02:49:39.192Z,1.20
2018-10-01T02:54:34.191Z,1.20
2018-10-01T02:59:28.962Z,1.33
2018-10-01T03:04:23.685Z,1.33
2018-10-01T03:09:18.188Z,1.43
2018-10-01T03:14:12.970Z,1.53
2018-10-01T03:19:07.940Z,1.50
2018-10-01T03:24:02.489Z,1.40
2018-10-01T03:28:57.224Z,1.30
2018-10-01T03:33:51.757Z,1.43
2018-10-01T03:38:46.235Z,0.87
2018-10-01T03:43:41.001Z,1.00
2018-10-01T03:48:36.014Z,1.07
2018-10-01T03:53:30.569Z,1.00
2018-10-01T03:58:25.232Z,1.30
2018-10-01T04:03:20.079Z,1.10
2018-10-01T04:08:14.917Z,1.30
2018-10-01T04:13:09.621Z,1.60
2018-10-01T04:18:04.397Z,1.63
2018-10-01T04:22:59.238Z,3.40
2018-10-01T04:27:59.592Z,4.93
2018-10-01T04:32:55.209Z,5.90
2018-10-01T04:37:50.046Z,6.10
2018-10-01T04:42:45.032Z,5.80
2018-10-01T04:47:39.869Z,6.80
2018-10-01T04:52:35.392Z,7.10
2018-10-01T04:57:30.855Z,7.20
2018-10-01T05:02:25.616Z,8.33
2018-10-01T05:07:20.708Z,8.60
2018-10-01T05:12:16.263Z,8.50
2018-10-01T05:17:16.171Z,7.87
2018-10-01T05:22:10.921Z,9.60
2018-10-01T05:27:06.077Z,8.33
2018-10-01T05:32:00.917Z,8.07
2018-10-01T05:36:55.616Z,6.80
2018-10-01T05:41:50.416Z,6.93
2018-10-01T05:46:44.959Z,7.23
2018-10-01T05:51:40.651Z,7.93
2018-10-01T05:56:35.753Z,7.40
2018-10-01T06:01:30.788Z,7.97
2018-10-01T06:06:29.620Z,7.37
2018-10-01T06:11:27.182Z,6.73
2018-10-01T06:16:53.778Z,8.20
2018-10-01T06:21:49.604Z,6.40
2018-10-01T06:26:44.252Z,6.13
2018-10-01T06:31:38.908Z,6.40
2018-10-01T06:36:33.437Z,6.60
2018-10-01T06:41:28.823Z,6.53
2018-10-01T06:46:23.392Z,6.53
2018-10-01T06:51:17.946Z,6.40
2018-10-01T06:56:13.108Z,6.50
2018-10-01T07:01:09.320Z,6.60
2018-10-01T07:06:04.257Z,6.60
2018-10-01T07:11:02.538Z,8.27
2018-10-01T07:16:02.192Z,7.57
2018-10-01T07:20:56.841Z,8.10
2018-10-01T07:25:58.480Z,8.60
2018-10-01T07:30:53.373Z,9.27
2018-10-01T07:35:50.907Z,9.10
2018-10-01T07:40:45.781Z,9.40
2018-10-01T07:45:47.170Z,9.83
2018-10-01T07:50:50.049Z,10.20
2018-10-01T07:55:44.986Z,9.50
2018-10-01T08:00:39.943Z,10.80
2018-10-01T08:05:34.468Z,10.93
2018-10-01T08:10:29.369Z,10.47
2018-10-01T08:15:25.186Z,10.47
2018-10-01T08:20:20.604Z,10.43
2018-10-01T08:25:15.824Z,10.83
2018-10-01T08:30:11.232Z,10.90
2018-10-01T08:35:06.185Z,10.50
2018-10-01T08:56:24.697Z,11.57
2018-10-01T09:01:19.327Z,11.43
2018-10-01T09:06:18.303Z,11.17
2018-10-01T09:11:13.190Z,10.97
2018-10-01T09:16:07.725Z,11.73
2018-10-01T09:26:27.947Z,12.70
2018-10-01T09:31:22.490Z,11.40
2018-10-01T09:36:17.103Z,10.97
2018-10-01T09:41:12.194Z,11.20
2018-10-01T10:02:23.875Z,12.20
2018-10-01T10:07:22.348Z,12.33
2018-10-01T10:12:23.696Z,12.23
2018-10-01T10:17:19.431Z,14.07
2018-10-01T10:27:43.934Z,13.53
2018-10-01T10:32:39.405Z,14.10
2018-10-01T10:37:35.049Z,13.00
2018-10-01T10:42:29.841Z,14.07
2018-10-01T11:03:39.188Z,14.80
2018-10-01T11:08:34.690Z,16.00
2018-10-01T11:13:31.092Z,15.23
2018-10-01T11:18:27.050Z,15.67
2018-10-01T11:23:22.406Z,15.00
2018-10-01T11:44:31.581Z,16.50
2018-10-01T11:49:26.666Z,16.30
2018-10-01T11:54:27.448Z,17.10
2018-10-01T11:59:22.969Z,15.47
2018-10-01T12:04:18.439Z,15.30
2018-10-01T12:25:28.444Z,17.50
2018-10-01T12:30:27.776Z,17.97
2018-10-01T12:35:22.749Z,19.07
2018-10-01T12:40:17.658Z,19.70
2018-10-01T13:01:26.481Z,19.83
2018-10-01T13:06:21.636Z,19.13
2018-10-01T13:11:16.599Z,18.90
2018-10-01T13:16:11.655Z,44.30
2018-10-01T13:21:07.854Z,46.50
2018-10-01T13:26:06.313Z,52.83
2018-10-01T13:31:02.753Z,48.33
2018-10-01T13:36:00.443Z,47.13
2018-10-01T13:40:55.352Z,41.73
2018-10-01T14:02:05.108Z,30.53
2018-10-01T14:06:59.822Z,33.83
2018-10-01T14:11:54.790Z,30.50
2018-10-01T14:16:49.672Z,64.53
2018-10-01T14:21:46.481Z,27.70
2018-10-01T14:26:43.706Z,38.50
2018-10-01T14:31:40.185Z,54.50
2018-10-01T14:36:51.662Z,52.87
2018-10-01T14:41:52.220Z,32.57
2018-10-01T15:03:02.474Z,30.60
2018-10-01T15:07:57.413Z,36.77
2018-10-01T15:12:53.400Z,35.37
2018-10-01T15:17:48.961Z,28.60
2018-10-01T15:22:44.281Z,29.67
2018-10-01T15:27:38.976Z,25.73
2018-10-01T15:32:33.936Z,23.83
2018-10-01T15:37:29.684Z,26.87
2018-10-01T15:42:24.765Z,24.37
2018-10-01T16:03:33.377Z,22.43
2018-10-01T16:08:27.973Z,23.03
2018-10-01T16:13:22.557Z,23.13
2018-10-01T16:18:17.232Z,21.70
2018-10-01T16:23:11.740Z,21.90
2018-10-01T16:28:06.369Z,22.33
2018-10-01T16:33:00.872Z,23.87
2018-10-01T16:37:55.392Z,24.47
2018-10-01T16:42:50.049Z,23.80
2018-10-01T17:03:59.441Z,23.20
2018-10-01T17:08:54.176Z,22.17
2018-10-01T17:13:48.997Z,22.43
2018-10-01T17:18:43.785Z,22.77
2018-10-01T17:23:38.574Z,18.73
2018-10-01T17:28:33.149Z,12.93
2018-10-01T17:33:27.941Z,11.93
2018-10-01T17:38:23.715Z,4.50
2018-10-01T17:43:18.366Z,4.27
2018-10-01T18:04:27.469Z,5.37
2018-10-01T18:09:22.128Z,4.47
2018-10-01T18:14:16.830Z,4.93
2018-10-01T18:19:12.098Z,5.27
2018-10-01T18:24:07.001Z,5.97
2018-10-01T18:29:01.835Z,6.17
2018-10-01T18:33:56.505Z,6.30
2018-10-01T18:43:55.253Z,4.47
2018-10-01T19:05:04.307Z,3.87
2018-10-01T19:09:58.896Z,3.60
2018-10-01T19:14:53.701Z,4.07
2018-10-01T19:19:48.204Z,4.37
2018-10-01T19:24:42.927Z,4.33
2018-10-01T19:29:37.541Z,6.27
2018-10-01T19:34:32.166Z,5.73
2018-10-01T19:39:27.451Z,7.63
2018-10-01T19:44:22.332Z,6.73
2018-10-01T20:05:32.629Z,8.10
2018-10-01T20:10:27.250Z,7.40
2018-10-01T20:15:21.995Z,7.57
2018-10-01T20:20:16.609Z,7.93
2018-10-01T20:25:11.134Z,7.67
2018-10-01T20:30:05.849Z,7.23
2018-10-01T20:35:00.523Z,6.60
2018-10-01T20:39:54.976Z,6.63
2018-10-01T20:44:49.496Z,4.40
2018-10-01T21:05:58.265Z,3.27
2018-10-01T21:10:52.810Z,3.93
2018-10-01T21:15:47.362Z,3.73
2018-10-01T21:20:41.934Z,6.17
2018-10-01T21:25:36.477Z,4.33
2018-10-01T21:46:45.645Z,3.90
2018-10-01T21:51:40.349Z,4.03
2018-10-01T21:56:35.117Z,4.03
2018-10-01T22:01:35.032Z,4.00
2018-10-01T22:06:29.752Z,4.13
2018-10-01T22:27:38.602Z,3.77
2018-10-01T22:32:33.365Z,3.87
2018-10-01T22:37:28.010Z,3.33
2018-10-01T22:42:22.741Z,3.03
2018-10-01T22:47:17.772Z,2.63
2018-10-01T23:08:27.088Z,2.17
2018-10-01T23:13:21.701Z,2.30
2018-10-01T23:18:16.356Z,2.00
2018-10-01T23:23:10.922Z,2.30
2018-10-01T23:28:05.587Z,2.30
2018-10-01T23:49:15.103Z,2.30
2018-10-01T23:54:09.648Z,2.07
2018-10-01T23:59:04.217Z,2.80
